sensor_id;sensor_type;location;lat;lon;timestamp;P1;durP1;ratioP1;P2;durP2;ratioP2
53835;SDS011;39737;43.334;21.936;2023-07-28T00:00:38;1.52;;;1.42;;
53835;SDS011;39737;43.334;21.936;2023-07-28T00:03:26;1.60;;;1.50;;
53835;SDS011;39737;43.334;21.936;2023-07-28T00:06:12;2.40;;;1.88;;
53835;SDS011;39737;43.334;21.936;2023-07-28T00:09:00;5.55;;;1.80;;
53835;SDS011;39737;43.334;21.936;2023-07-28T00:11:52;4.00;;;1.95;;
53835;SDS011;39737;43.334;21.936;2023-07-28T00:14:41;2.15;;;1.52;;
53835;SDS011;39737;43.334;21.936;2023-07-28T00:17:35;1.60;;;1.50;;
53835;SDS011;39737;43.334;21.936;2023-07-28T00:20:25;6.20;;;1.85;;
53835;SDS011;39737;43.334;21.936;2023-07-28T00:23:21;2.03;;;1.38;;
53835;SDS011;39737;43.334;21.936;2023-07-28T00:26:15;1.98;;;1.52;;
53835;SDS011;39737;43.334;21.936;2023-07-28T00:29:04;2.28;;;1.50;;
53835;SDS011;39737;43.334;21.936;2023-07-28T00:32:01;2.90;;;1.83;;
53835;SDS011;39737;43.334;21.936;2023-07-28T00:34:59;1.83;;;1.65;;
53835;SDS011;39737;43.334;21.936;2023-07-28T00:37:45;2.05;;;1.40;;
53835;SDS011;39737;43.334;21.936;2023-07-28T00:40:32;2.20;;;1.80;;
53835;SDS011;39737;43.334;21.936;2023-07-28T00:43:20;1.70;;;1.60;;
53835;SDS011;39737;43.334;21.936;2023-07-28T00:46:07;2.63;;;1.75;;
53835;SDS011;39737;43.334;21.936;2023-07-28T00:48:54;2.85;;;1.63;;
53835;SDS011;39737;43.334;21.936;2023-07-28T00:52:07;4.53;;;1.42;;
53835;SDS011;39737;43.334;21.936;2023-07-28T00:54:58;1.77;;;1.63;;
53835;SDS011;39737;43.334;21.936;2023-07-28T00:57:45;4.00;;;1.50;;
53835;SDS011;39737;43.334;21.936;2023-07-28T01:00:33;1.73;;;1.60;;
53835;SDS011;39737;43.334;21.936;2023-07-28T01:03:20;2.25;;;1.85;;
53835;SDS011;39737;43.334;21.936;2023-07-28T01:06:14;2.78;;;2.00;;
53835;SDS011;39737;43.334;21.936;2023-07-28T01:09:06;1.75;;;1.60;;
53835;SDS011;39737;43.334;21.936;2023-07-28T01:11:55;2.38;;;1.98;;
53835;SDS011;39737;43.334;21.936;2023-07-28T01:14:43;3.40;;;2.10;;
53835;SDS011;39737;43.334;21.936;2023-07-28T01:17:30;3.95;;;2.03;;
53835;SDS011;39737;43.334;21.936;2023-07-28T01:27:25;2.55;;;1.90;;
53835;SDS011;39737;43.334;21.936;2023-07-28T01:30:12;2.00;;;1.75;;
53835;SDS011;39737;43.334;21.936;2023-07-28T01:33:00;1.75;;;1.48;;
53835;SDS011;39737;43.334;21.936;2023-07-28T01:35:49;1.92;;;1.65;;
53835;SDS011;39737;43.334;21.936;2023-07-28T01:38:36;3.20;;;2.08;;
53835;SDS011;39737;43.334;21.936;2023-07-28T01:41:23;2.53;;;2.10;;
53835;SDS011;39737;43.334;21.936;2023-07-28T01:44:13;10.27;;;2.33;;
53835;SDS011;39737;43.334;21.936;2023-07-28T01:47:01;3.10;;;1.70;;
53835;SDS011;39737;43.334;21.936;2023-07-28T01:50:08;1.73;;;1.63;;
53835;SDS011;39737;43.334;21.936;2023-07-28T01:52:56;4.07;;;2.30;;
53835;SDS011;39737;43.334;21.936;2023-07-28T01:55:43;2.90;;;2.03;;
53835;SDS011;39737;43.334;21.936;2023-07-28T01:58:31;2.35;;;1.85;;
53835;SDS011;39737;43.334;21.936;2023-07-28T02:01:18;3.08;;;2.03;;
53835;SDS011;39737;43.334;21.936;2023-07-28T02:04:05;4.28;;;1.70;;
53835;SDS011;39737;43.334;21.936;2023-07-28T02:06:52;2.80;;;1.70;;
53835;SDS011;39737;43.334;21.936;2023-07-28T02:09:39;2.25;;;1.85;;
53835;SDS011;39737;43.334;21.936;2023-07-28T02:12:26;7.88;;;2.22;;
53835;SDS011;39737;43.334;21.936;2023-07-28T02:15:13;2.45;;;2.25;;
53835;SDS011;39737;43.334;21.936;2023-07-28T02:18:00;3.28;;;1.90;;
53835;SDS011;39737;43.334;21.936;2023-07-28T02:20:48;7.07;;;1.80;;
53835;SDS011;39737;43.334;21.936;2023-07-28T02:23:37;5.35;;;2.08;;
53835;SDS011;39737;43.334;21.936;2023-07-28T02:26:25;3.15;;;2.30;;
53835;SDS011;39737;43.334;21.936;2023-07-28T02:29:12;2.55;;;2.05;;
53835;SDS011;39737;43.334;21.936;2023-07-28T02:32:00;4.60;;;2.08;;
53835;SDS011;39737;43.334;21.936;2023-07-28T02:34:47;3.35;;;2.45;;
53835;SDS011;39737;43.334;21.936;2023-07-28T02:37:36;4.10;;;1.88;;
53835;SDS011;39737;43.334;21.936;2023-07-28T02:40:24;3.13;;;2.78;;
53835;SDS011;39737;43.334;21.936;2023-07-28T02:43:13;2.72;;;1.90;;
53835;SDS011;39737;43.334;21.936;2023-07-28T02:46:01;3.38;;;2.00;;
53835;SDS011;39737;43.334;21.936;2023-07-28T02:48:51;4.95;;;2.03;;
53835;SDS011;39737;43.334;21.936;2023-07-28T02:51:41;3.53;;;1.80;;
53835;SDS011;39737;43.334;21.936;2023-07-28T02:54:28;2.67;;;2.25;;
53835;SDS011;39737;43.334;21.936;2023-07-28T02:57:15;4.20;;;2.30;;
53835;SDS011;39737;43.334;21.936;2023-07-28T03:00:06;2.57;;;2.37;;
53835;SDS011;39737;43.334;21.936;2023-07-28T03:03:00;6.90;;;2.72;;
53835;SDS011;39737;43.334;21.936;2023-07-28T03:05:51;3.13;;;2.40;;
53835;SDS011;39737;43.334;21.936;2023-07-28T03:08:43;6.68;;;2.05;;
53835;SDS011;39737;43.334;21.936;2023-07-28T03:11:51;2.10;;;1.90;;
53835;SDS011;39737;43.334;21.936;2023-07-28T03:14:40;2.28;;;2.00;;
53835;SDS011;39737;43.334;21.936;2023-07-28T03:17:30;5.25;;;2.30;;
53835;SDS011;39737;43.334;21.936;2023-07-28T03:20:17;2.63;;;2.00;;
53835;SDS011;39737;43.334;21.936;2023-07-28T03:23:05;2.45;;;2.03;;
53835;SDS011;39737;43.334;21.936;2023-07-28T03:25:52;3.00;;;2.30;;
53835;SDS011;39737;43.334;21.936;2023-07-28T03:28:39;2.53;;;2.05;;
53835;SDS011;39737;43.334;21.936;2023-07-28T03:31:29;3.50;;;2.25;;
53835;SDS011;39737;43.334;21.936;2023-07-28T03:34:16;2.55;;;2.35;;
53835;SDS011;39737;43.334;21.936;2023-07-28T03:37:02;2.33;;;2.10;;
53835;SDS011;39737;43.334;21.936;2023-07-28T03:39:49;3.25;;;2.35;;
53835;SDS011;39737;43.334;21.936;2023-07-28T03:42:39;2.42;;;2.22;;
53835;SDS011;39737;43.334;21.936;2023-07-28T03:45:27;7.43;;;2.30;;
53835;SDS011;39737;43.334;21.936;2023-07-28T03:48:17;7.10;;;2.60;;
53835;SDS011;39737;43.334;21.936;2023-07-28T03:51:06;4.07;;;2.75;;
53835;SDS011;39737;43.334;21.936;2023-07-28T03:53:54;6.05;;;2.25;;
53835;SDS011;39737;43.334;21.936;2023-07-28T03:56:42;4.20;;;2.60;;
53835;SDS011;39737;43.334;21.936;2023-07-28T03:59:30;5.18;;;2.08;;
53835;SDS011;39737;43.334;21.936;2023-07-28T04:02:17;2.53;;;2.17;;
53835;SDS011;39737;43.334;21.936;2023-07-28T04:05:05;10.65;;;2.60;;
53835;SDS011;39737;43.334;21.936;2023-07-28T04:07:53;2.17;;;1.98;;
53835;SDS011;39737;43.334;21.936;2023-07-28T04:10:42;2.85;;;2.53;;
53835;SDS011;39737;43.334;21.936;2023-07-28T04:13:30;2.00;;;1.80;;
53835;SDS011;39737;43.334;21.936;2023-07-28T04:16:19;2.17;;;1.77;;
53835;SDS011;39737;43.334;21.936;2023-07-28T04:19:06;2.80;;;2.08;;
53835;SDS011;39737;43.334;21.936;2023-07-28T04:21:54;4.10;;;2.20;;
53835;SDS011;39737;43.334;21.936;2023-07-28T04:24:45;2.90;;;2.20;;
53835;SDS011;39737;43.334;21.936;2023-07-28T04:27:37;2.20;;;2.00;;
53835;SDS011;39737;43.334;21.936;2023-07-28T04:30:24;2.13;;;1.88;;
53835;SDS011;39737;43.334;21.936;2023-07-28T04:33:13;2.25;;;1.85;;
53835;SDS011;39737;43.334;21.936;2023-07-28T04:36:02;2.63;;;1.95;;
53835;SDS011;39737;43.334;21.936;2023-07-28T04:38:53;3.03;;;2.00;;
53835;SDS011;39737;43.334;21.936;2023-07-28T04:41:46;2.72;;;1.50;;
53835;SDS011;39737;43.334;21.936;2023-07-28T04:44:40;2.08;;;1.88;;
53835;SDS011;39737;43.334;21.936;2023-07-28T04:47:34;1.83;;;1.55;;
53835;SDS011;39737;43.334;21.936;2023-07-28T04:50:22;2.63;;;2.13;;
53835;SDS011;39737;43.334;21.936;2023-07-28T04:53:37;2.80;;;2.35;;
53835;SDS011;39737;43.334;21.936;2023-07-28T04:56:38;2.80;;;1.92;;
53835;SDS011;39737;43.334;21.936;2023-07-28T04:59:27;2.30;;;2.00;;
53835;SDS011;39737;43.334;21.936;2023-07-28T05:02:14;4.15;;;2.22;;
53835;SDS011;39737;43.334;21.936;2023-07-28T05:05:04;6.05;;;1.95;;
53835;SDS011;39737;43.334;21.936;2023-07-28T05:07:52;1.90;;;1.80;;
53835;SDS011;39737;43.334;21.936;2023-07-28T05:10:40;4.90;;;2.28;;
53835;SDS011;39737;43.334;21.936;2023-07-28T05:13:29;3.97;;;1.92;;
53835;SDS011;39737;43.334;21.936;2023-07-28T05:16:19;3.35;;;2.25;;
53835;SDS011;39737;43.334;21.936;2023-07-28T05:19:31;3.13;;;1.80;;
53835;SDS011;39737;43.334;21.936;2023-07-28T05:22:52;3.45;;;2.10;;
53835;SDS011;39737;43.334;21.936;2023-07-28T05:25:45;10.18;;;2.70;;
53835;SDS011;39737;43.334;21.936;2023-07-28T05:28:34;3.60;;;1.88;;
53835;SDS011;39737;43.334;21.936;2023-07-28T05:31:23;2.47;;;2.25;;
53835;SDS011;39737;43.334;21.936;2023-07-28T05:34:11;2.08;;;1.90;;
53835;SDS011;39737;43.334;21.936;2023-07-28T05:37:02;2.30;;;2.10;;
53835;SDS011;39737;43.334;21.936;2023-07-28T05:39:50;5.22;;;2.10;;
53835;SDS011;39737;43.334;21.936;2023-07-28T05:42:38;9.82;;;2.17;;
53835;SDS011;39737;43.334;21.936;2023-07-28T05:45:25;2.72;;;2.05;;
53835;SDS011;39737;43.334;21.936;2023-07-28T05:48:12;4.35;;;2.20;;
53835;SDS011;39737;43.334;21.936;2023-07-28T05:50:58;5.53;;;2.20;;
53835;SDS011;39737;43.334;21.936;2023-07-28T05:53:44;2.33;;;1.80;;
53835;SDS011;39737;43.334;21.936;2023-07-28T05:56:49;2.92;;;2.05;;
53835;SDS011;39737;43.334;21.936;2023-07-28T05:59:36;3.08;;;2.38;;
53835;SDS011;39737;43.334;21.936;2023-07-28T06:02:22;2.15;;;1.73;;
53835;SDS011;39737;43.334;21.936;2023-07-28T06:05:12;4.32;;;1.92;;
53835;SDS011;39737;43.334;21.936;2023-07-28T06:07:59;3.67;;;1.90;;
53835;SDS011;39737;43.334;21.936;2023-07-28T06:10:51;2.85;;;2.25;;
53835;SDS011;39737;43.334;21.936;2023-07-28T06:13:37;2.35;;;1.63;;
53835;SDS011;39737;43.334;21.936;2023-07-28T06:16:23;3.35;;;2.22;;
53835;SDS011;39737;43.334;21.936;2023-07-28T06:19:10;5.10;;;2.20;;
53835;SDS011;39737;43.334;21.936;2023-07-28T06:21:58;2.13;;;1.85;;
53835;SDS011;39737;43.334;21.936;2023-07-28T06:24:44;3.88;;;1.95;;
53835;SDS011;39737;43.334;21.936;2023-07-28T06:27:50;3.63;;;2.20;;
53835;SDS011;39737;43.334;21.936;2023-07-28T06:30:37;3.90;;;2.20;;
53835;SDS011;39737;43.334;21.936;2023-07-28T06:33:24;3.10;;;2.10;;
53835;SDS011;39737;43.334;21.936;2023-07-28T06:36:10;4.20;;;1.90;;
53835;SDS011;39737;43.334;21.936;2023-07-28T06:38:56;3.83;;;2.35;;
53835;SDS011;39737;43.334;21.936;2023-07-28T06:41:43;3.53;;;2.38;;
53835;SDS011;39737;43.334;21.936;2023-07-28T06:44:54;3.25;;;2.03;;
53835;SDS011;39737;43.334;21.936;2023-07-28T06:51:47;2.78;;;2.13;;
53835;SDS011;39737;43.334;21.936;2023-07-28T06:54:36;2.33;;;2.13;;
53835;SDS011;39737;43.334;21.936;2023-07-28T06:57:25;3.47;;;2.63;;
53835;SDS011;39737;43.334;21.936;2023-07-28T07:00:12;4.78;;;2.28;;
53835;SDS011;39737;43.334;21.936;2023-07-28T07:02:58;1.98;;;1.80;;
53835;SDS011;39737;43.334;21.936;2023-07-28T07:05:45;3.35;;;2.20;;
53835;SDS011;39737;43.334;21.936;2023-07-28T07:08:31;3.50;;;2.15;;
53835;SDS011;39737;43.334;21.936;2023-07-28T07:11:18;3.78;;;2.30;;
53835;SDS011;39737;43.334;21.936;2023-07-28T07:14:04;5.00;;;1.88;;
53835;SDS011;39737;43.334;21.936;2023-07-28T07:16:51;3.03;;;2.28;;
53835;SDS011;39737;43.334;21.936;2023-07-28T07:19:37;5.80;;;1.70;;
53835;SDS011;39737;43.334;21.936;2023-07-28T07:22:23;3.67;;;1.70;;
53835;SDS011;39737;43.334;21.936;2023-07-28T07:25:10;1.83;;;1.52;;
53835;SDS011;39737;43.334;21.936;2023-07-28T07:27:57;1.80;;;1.45;;
53835;SDS011;39737;43.334;21.936;2023-07-28T07:30:43;2.28;;;1.60;;
53835;SDS011;39737;43.334;21.936;2023-07-28T07:33:30;3.35;;;1.90;;
53835;SDS011;39737;43.334;21.936;2023-07-28T07:36:17;1.52;;;1.23;;
53835;SDS011;39737;43.334;21.936;2023-07-28T07:39:04;1.33;;;1.23;;
53835;SDS011;39737;43.334;21.936;2023-07-28T07:41:51;1.42;;;1.33;;
53835;SDS011;39737;43.334;21.936;2023-07-28T07:44:37;5.25;;;1.67;;
53835;SDS011;39737;43.334;21.936;2023-07-28T07:47:23;1.70;;;1.50;;
53835;SDS011;39737;43.334;21.936;2023-07-28T07:50:10;1.40;;;1.30;;
53835;SDS011;39737;43.334;21.936;2023-07-28T07:52:56;1.23;;;1.08;;
53835;SDS011;39737;43.334;21.936;2023-07-28T07:55:45;1.80;;;1.42;;
53835;SDS011;39737;43.334;21.936;2023-07-28T07:58:31;2.60;;;1.40;;
53835;SDS011;39737;43.334;21.936;2023-07-28T08:01:18;6.75;;;1.92;;
53835;SDS011;39737;43.334;21.936;2023-07-28T08:04:04;2.85;;;1.70;;
53835;SDS011;39737;43.334;21.936;2023-07-28T08:06:50;2.70;;;1.40;;
53835;SDS011;39737;43.334;21.936;2023-07-28T08:09:37;1.85;;;1.45;;
53835;SDS011;39737;43.334;21.936;2023-07-28T08:12:23;1.95;;;1.38;;
53835;SDS011;39737;43.334;21.936;2023-07-28T08:15:10;1.50;;;1.40;;
53835;SDS011;39737;43.334;21.936;2023-07-28T08:17:56;1.95;;;1.60;;
53835;SDS011;39737;43.334;21.936;2023-07-28T08:20:43;1.55;;;1.42;;
53835;SDS011;39737;43.334;21.936;2023-07-28T08:23:29;2.03;;;1.60;;
53835;SDS011;39737;43.334;21.936;2023-07-28T08:26:15;1.23;;;1.13;;
53835;SDS011;39737;43.334;21.936;2023-07-28T08:29:02;5.18;;;1.33;;
53835;SDS011;39737;43.334;21.936;2023-07-28T08:31:51;1.48;;;1.20;;
53835;SDS011;39737;43.334;21.936;2023-07-28T08:34:46;1.85;;;1.20;;
53835;SDS011;39737;43.334;21.936;2023-07-28T08:37:32;1.10;;;1.00;;
53835;SDS011;39737;43.334;21.936;2023-07-28T08:40:18;1.70;;;1.33;;
53835;SDS011;39737;43.334;21.936;2023-07-28T08:43:06;3.40;;;1.85;;
53835;SDS011;39737;43.334;21.936;2023-07-28T08:45:52;1.65;;;1.33;;
53835;SDS011;39737;43.334;21.936;2023-07-28T08:48:39;1.30;;;1.20;;
53835;SDS011;39737;43.334;21.936;2023-07-28T08:51:25;1.42;;;1.23;;
53835;SDS011;39737;43.334;21.936;2023-07-28T08:54:12;13.02;;;1.42;;
53835;SDS011;39737;43.334;21.936;2023-07-28T08:56:59;8.57;;;1.45;;
53835;SDS011;39737;43.334;21.936;2023-07-28T08:59:45;2.10;;;1.40;;
53835;SDS011;39737;43.334;21.936;2023-07-28T09:02:34;1.17;;;1.08;;
53835;SDS011;39737;43.334;21.936;2023-07-28T09:05:20;1.65;;;1.38;;
53835;SDS011;39737;43.334;21.936;2023-07-28T09:08:10;2.50;;;1.20;;
53835;SDS011;39737;43.334;21.936;2023-07-28T09:10:56;1.35;;;1.20;;
53835;SDS011;39737;43.334;21.936;2023-07-28T09:13:47;2.97;;;1.58;;
53835;SDS011;39737;43.334;21.936;2023-07-28T09:16:35;5.85;;;1.50;;
53835;SDS011;39737;43.334;21.936;2023-07-28T09:19:22;1.25;;;1.15;;
53835;SDS011;39737;43.334;21.936;2023-07-28T09:22:08;2.35;;;1.35;;
53835;SDS011;39737;43.334;21.936;2023-07-28T09:24:56;3.88;;;1.40;;
53835;SDS011;39737;43.334;21.936;2023-07-28T09:27:51;2.78;;;1.70;;
53835;SDS011;39737;43.334;21.936;2023-07-28T09:30:48;3.42;;;1.60;;
53835;SDS011;39737;43.334;21.936;2023-07-28T09:33:36;2.00;;;1.30;;
53835;SDS011;39737;43.334;21.936;2023-07-28T09:36:23;2.53;;;1.60;;
53835;SDS011;39737;43.334;21.936;2023-07-28T09:39:11;1.85;;;1.63;;
53835;SDS011;39737;43.334;21.936;2023-07-28T09:41:58;1.77;;;1.20;;
53835;SDS011;39737;43.334;21.936;2023-07-28T09:44:46;1.75;;;1.40;;
53835;SDS011;39737;43.334;21.936;2023-07-28T09:47:35;1.80;;;1.30;;
53835;SDS011;39737;43.334;21.936;2023-07-28T09:50:22;2.17;;;1.40;;
53835;SDS011;39737;43.334;21.936;2023-07-28T09:53:09;1.17;;;1.08;;
53835;SDS011;39737;43.334;21.936;2023-07-28T09:55:57;2.03;;;1.48;;
53835;SDS011;39737;43.334;21.936;2023-07-28T09:58:47;3.25;;;1.50;;
53835;SDS011;39737;43.334;21.936;2023-07-28T10:01:35;1.42;;;1.30;;
53835;SDS011;39737;43.334;21.936;2023-07-28T10:04:22;5.68;;;1.20;;
53835;SDS011;39737;43.334;21.936;2023-07-28T10:07:08;1.63;;;1.42;;
53835;SDS011;39737;43.334;21.936;2023-07-28T10:09:54;1.13;;;1.00;;
53835;SDS011;39737;43.334;21.936;2023-07-28T10:12:42;2.03;;;1.33;;
53835;SDS011;39737;43.334;21.936;2023-07-28T10:15:29;1.77;;;1.48;;
53835;SDS011;39737;43.334;21.936;2023-07-28T10:18:16;2.75;;;1.40;;
53835;SDS011;39737;43.334;21.936;2023-07-28T10:21:08;4.72;;;1.35;;
53835;SDS011;39737;43.334;21.936;2023-07-28T10:23:57;2.13;;;1.48;;
53835;SDS011;39737;43.334;21.936;2023-07-28T10:26:43;1.75;;;1.33;;
53835;SDS011;39737;43.334;21.936;2023-07-28T10:29:36;9.25;;;1.38;;
53835;SDS011;39737;43.334;21.936;2023-07-28T10:32:26;7.03;;;1.27;;
53835;SDS011;39737;43.334;21.936;2023-07-28T10:41:12;4.47;;;1.33;;
53835;SDS011;39737;43.334;21.936;2023-07-28T10:43:59;1.10;;;0.95;;
53835;SDS011;39737;43.334;21.936;2023-07-28T10:46:46;1.30;;;1.20;;
53835;SDS011;39737;43.334;21.936;2023-07-28T10:49:33;1.48;;;1.20;;
53835;SDS011;39737;43.334;21.936;2023-07-28T10:52:19;1.23;;;1.13;;
53835;SDS011;39737;43.334;21.936;2023-07-28T10:55:16;1.48;;;1.23;;
53835;SDS011;39737;43.334;21.936;2023-07-28T10:58:02;1.27;;;0.93;;
53835;SDS011;39737;43.334;21.936;2023-07-28T11:00:50;1.63;;;1.00;;
53835;SDS011;39737;43.334;21.936;2023-07-28T11:03:39;1.55;;;1.30;;
53835;SDS011;39737;43.334;21.936;2023-07-28T11:06:25;1.40;;;1.25;;
53835;SDS011;39737;43.334;21.936;2023-07-28T11:09:13;2.20;;;1.23;;
53835;SDS011;39737;43.334;21.936;2023-07-28T11:12:02;1.35;;;1.20;;
53835;SDS011;39737;43.334;21.936;2023-07-28T11:14:49;2.75;;;1.17;;
53835;SDS011;39737;43.334;21.936;2023-07-28T11:17:35;2.17;;;0.98;;
53835;SDS011;39737;43.334;21.936;2023-07-28T11:20:24;4.78;;;1.15;;
53835;SDS011;39737;43.334;21.936;2023-07-28T11:23:13;2.00;;;1.13;;
53835;SDS011;39737;43.334;21.936;2023-07-28T11:26:02;3.92;;;1.10;;
53835;SDS011;39737;43.334;21.936;2023-07-28T11:28:56;2.45;;;0.90;;
53835;SDS011;39737;43.334;21.936;2023-07-28T11:31:47;1.98;;;1.00;;
53835;SDS011;39737;43.334;21.936;2023-07-28T11:34:36;1.10;;;1.00;;
53835;SDS011;39737;43.334;21.936;2023-07-28T11:37:22;1.40;;;0.77;;
53835;SDS011;39737;43.334;21.936;2023-07-28T11:40:09;2.60;;;1.50;;
53835;SDS011;39737;43.334;21.936;2023-07-28T11:43:00;1.20;;;0.80;;
53835;SDS011;39737;43.334;21.936;2023-07-28T11:45:46;1.73;;;0.95;;
53835;SDS011;39737;43.334;21.936;2023-07-28T11:48:32;0.95;;;0.70;;
53835;SDS011;39737;43.334;21.936;2023-07-28T11:51:21;1.40;;;1.08;;
53835;SDS011;39737;43.334;21.936;2023-07-28T11:54:07;0.60;;;0.60;;
53835;SDS011;39737;43.334;21.936;2023-07-28T11:56:56;2.35;;;0.80;;
53835;SDS011;39737;43.334;21.936;2023-07-28T11:59:43;1.27;;;1.00;;
53835;SDS011;39737;43.334;21.936;2023-07-28T12:02:31;3.42;;;1.27;;
53835;SDS011;39737;43.334;21.936;2023-07-28T12:05:17;3.55;;;1.20;;
53835;SDS011;39737;43.334;21.936;2023-07-28T12:08:06;1.70;;;0.77;;
53835;SDS011;39737;43.334;21.936;2023-07-28T12:11:00;1.35;;;0.98;;
53835;SDS011;39737;43.334;21.936;2023-07-28T12:13:50;1.73;;;1.08;;
53835;SDS011;39737;43.334;21.936;2023-07-28T12:16:40;0.93;;;0.70;;
53835;SDS011;39737;43.334;21.936;2023-07-28T12:19:32;1.02;;;0.82;;
53835;SDS011;39737;43.334;21.936;2023-07-28T12:22:19;1.88;;;0.93;;
53835;SDS011;39737;43.334;21.936;2023-07-28T12:25:05;1.80;;;1.38;;
53835;SDS011;39737;43.334;21.936;2023-07-28T12:27:51;2.97;;;1.38;;
53835;SDS011;39737;43.334;21.936;2023-07-28T12:30:38;1.30;;;0.90;;
53835;SDS011;39737;43.334;21.936;2023-07-28T12:33:24;2.60;;;2.40;;
53835;SDS011;39737;43.334;21.936;2023-07-28T12:36:24;2.28;;;1.23;;
53835;SDS011;39737;43.334;21.936;2023-07-28T12:39:31;1.95;;;1.40;;
53835;SDS011;39737;43.334;21.936;2023-07-28T12:42:31;1.10;;;0.93;;
53835;SDS011;39737;43.334;21.936;2023-07-28T12:45:33;1.45;;;0.93;;
53835;SDS011;39737;43.334;21.936;2023-07-28T12:48:22;1.65;;;1.05;;
53835;SDS011;39737;43.334;21.936;2023-07-28T12:51:09;2.72;;;1.30;;
53835;SDS011;39737;43.334;21.936;2023-07-28T12:53:55;0.82;;;0.60;;
53835;SDS011;39737;43.334;21.936;2023-07-28T12:56:41;1.83;;;1.15;;
53835;SDS011;39737;43.334;21.936;2023-07-28T12:59:28;1.17;;;0.88;;
53835;SDS011;39737;43.334;21.936;2023-07-28T13:02:15;2.75;;;1.05;;
53835;SDS011;39737;43.334;21.936;2023-07-28T13:05:01;5.13;;;1.88;;
53835;SDS011;39737;43.334;21.936;2023-07-28T13:07:48;1.98;;;0.85;;
53835;SDS011;39737;43.334;21.936;2023-07-28T13:10:36;1.65;;;1.00;;
53835;SDS011;39737;43.334;21.936;2023-07-28T13:13:28;2.72;;;1.23;;
53835;SDS011;39737;43.334;21.936;2023-07-28T13:16:16;2.63;;;1.30;;
53835;SDS011;39737;43.334;21.936;2023-07-28T13:19:02;1.88;;;1.08;;
53835;SDS011;39737;43.334;21.936;2023-07-28T13:21:48;1.30;;;1.08;;
53835;SDS011;39737;43.334;21.936;2023-07-28T13:24:34;2.38;;;1.08;;
53835;SDS011;39737;43.334;21.936;2023-07-28T13:27:21;1.60;;;0.88;;
53835;SDS011;39737;43.334;21.936;2023-07-28T13:30:07;2.45;;;1.33;;
53835;SDS011;39737;43.334;21.936;2023-07-28T13:32:53;1.95;;;1.17;;
53835;SDS011;39737;43.334;21.936;2023-07-28T13:36:00;1.55;;;0.90;;
53835;SDS011;39737;43.334;21.936;2023-07-28T13:38:49;2.25;;;1.10;;
53835;SDS011;39737;43.334;21.936;2023-07-28T13:41:35;1.60;;;1.10;;
53835;SDS011;39737;43.334;21.936;2023-07-28T13:44:24;2.90;;;1.45;;
53835;SDS011;39737;43.334;21.936;2023-07-28T13:47:16;1.00;;;0.90;;
53835;SDS011;39737;43.334;21.936;2023-07-28T13:50:03;1.65;;;1.00;;
53835;SDS011;39737;43.334;21.936;2023-07-28T13:52:49;2.67;;;1.00;;
53835;SDS011;39737;43.334;21.936;2023-07-28T13:55:35;1.80;;;0.90;;
53835;SDS011;39737;43.334;21.936;2023-07-28T13:58:24;3.10;;;0.73;;
53835;SDS011;39737;43.334;21.936;2023-07-28T14:01:10;1.45;;;0.85;;
53835;SDS011;39737;43.334;21.936;2023-07-28T14:03:57;1.13;;;0.90;;
53835;SDS011;39737;43.334;21.936;2023-07-28T14:06:43;2.15;;;1.35;;
53835;SDS011;39737;43.334;21.936;2023-07-28T14:09:30;2.22;;;1.27;;
53835;SDS011;39737;43.334;21.936;2023-07-28T14:12:29;2.70;;;1.23;;
53835;SDS011;39737;43.334;21.936;2023-07-28T14:15:15;2.10;;;1.10;;
53835;SDS011;39737;43.334;21.936;2023-07-28T14:18:01;4.22;;;1.48;;
53835;SDS011;39737;43.334;21.936;2023-07-28T14:20:48;1.45;;;0.90;;
53835;SDS011;39737;43.334;21.936;2023-07-28T14:23:35;2.55;;;1.10;;
53835;SDS011;39737;43.334;21.936;2023-07-28T14:26:21;2.80;;;1.23;;
53835;SDS011;39737;43.334;21.936;2023-07-28T14:29:26;2.72;;;1.00;;
53835;SDS011;39737;43.334;21.936;2023-07-28T14:32:12;1.95;;;0.93;;
53835;SDS011;39737;43.334;21.936;2023-07-28T14:34:59;2.15;;;1.35;;
53835;SDS011;39737;43.334;21.936;2023-07-28T14:37:47;4.13;;;1.23;;
53835;SDS011;39737;43.334;21.936;2023-07-28T14:40:35;4.00;;;1.20;;
53835;SDS011;39737;43.334;21.936;2023-07-28T14:43:22;1.88;;;1.13;;
53835;SDS011;39737;43.334;21.936;2023-07-28T14:46:08;1.55;;;1.30;;
53835;SDS011;39737;43.334;21.936;2023-07-28T14:48:55;1.23;;;0.70;;
53835;SDS011;39737;43.334;21.936;2023-07-28T14:51:41;4.85;;;1.60;;
53835;SDS011;39737;43.334;21.936;2023-07-28T14:54:28;1.23;;;0.82;;
53835;SDS011;39737;43.334;21.936;2023-07-28T14:57:16;1.13;;;1.00;;
53835;SDS011;39737;43.334;21.936;2023-07-28T15:00:19;1.67;;;1.10;;
53835;SDS011;39737;43.334;21.936;2023-07-28T15:03:05;3.35;;;1.10;;
53835;SDS011;39737;43.334;21.936;2023-07-28T15:05:52;2.80;;;1.15;;
53835;SDS011;39737;43.334;21.936;2023-07-28T15:08:39;4.53;;;1.23;;
53835;SDS011;39737;43.334;21.936;2023-07-28T15:11:25;1.60;;;0.93;;
53835;SDS011;39737;43.334;21.936;2023-07-28T15:14:11;2.97;;;1.27;;
53835;SDS011;39737;43.334;21.936;2023-07-28T15:16:59;1.77;;;1.15;;
53835;SDS011;39737;43.334;21.936;2023-07-28T15:19:45;3.20;;;1.20;;
53835;SDS011;39737;43.334;21.936;2023-07-28T15:22:31;4.00;;;0.93;;
53835;SDS011;39737;43.334;21.936;2023-07-28T15:25:21;1.27;;;0.90;;
53835;SDS011;39737;43.334;21.936;2023-07-28T15:28:14;4.32;;;1.20;;
53835;SDS011;39737;43.334;21.936;2023-07-28T15:31:00;2.10;;;1.08;;
53835;SDS011;39737;43.334;21.936;2023-07-28T15:33:46;1.83;;;1.13;;
53835;SDS011;39737;43.334;21.936;2023-07-28T15:36:33;3.70;;;0.70;;
53835;SDS011;39737;43.334;21.936;2023-07-28T15:39:19;1.88;;;1.02;;
53835;SDS011;39737;43.334;21.936;2023-07-28T15:42:06;4.22;;;1.73;;
53835;SDS011;39737;43.334;21.936;2023-07-28T15:44:52;1.33;;;0.95;;
53835;SDS011;39737;43.334;21.936;2023-07-28T15:47:40;2.63;;;1.30;;
53835;SDS011;39737;43.334;21.936;2023-07-28T15:50:26;2.85;;;1.05;;
53835;SDS011;39737;43.334;21.936;2023-07-28T15:53:12;1.10;;;0.95;;
53835;SDS011;39737;43.334;21.936;2023-07-28T15:55:58;1.60;;;1.17;;
53835;SDS011;39737;43.334;21.936;2023-07-28T15:58:45;1.23;;;1.05;;
53835;SDS011;39737;43.334;21.936;2023-07-28T16:01:31;2.70;;;1.58;;
53835;SDS011;39737;43.334;21.936;2023-07-28T16:04:18;2.47;;;1.17;;
53835;SDS011;39737;43.334;21.936;2023-07-28T16:07:05;1.80;;;0.70;;
53835;SDS011;39737;43.334;21.936;2023-07-28T16:09:51;2.10;;;1.25;;
53835;SDS011;39737;43.334;21.936;2023-07-28T16:12:38;2.13;;;1.52;;
53835;SDS011;39737;43.334;21.936;2023-07-28T16:15:24;1.88;;;1.10;;
53835;SDS011;39737;43.334;21.936;2023-07-28T16:18:12;0.93;;;0.80;;
53835;SDS011;39737;43.334;21.936;2023-07-28T16:20:59;5.35;;;0.90;;
53835;SDS011;39737;43.334;21.936;2023-07-28T16:23:46;7.30;;;1.20;;
53835;SDS011;39737;43.334;21.936;2023-07-28T16:26:32;2.53;;;1.27;;
53835;SDS011;39737;43.334;21.936;2023-07-28T16:29:19;2.35;;;1.70;;
53835;SDS011;39737;43.334;21.936;2023-07-28T16:32:05;2.20;;;1.63;;
53835;SDS011;39737;43.334;21.936;2023-07-28T16:34:53;3.15;;;1.42;;
53835;SDS011;39737;43.334;21.936;2023-07-28T16:37:39;3.70;;;1.48;;
53835;SDS011;39737;43.334;21.936;2023-07-28T16:40:26;3.65;;;1.50;;
53835;SDS011;39737;43.334;21.936;2023-07-28T16:43:12;3.53;;;1.48;;
53835;SDS011;39737;43.334;21.936;2023-07-28T16:45:59;3.90;;;1.58;;
53835;SDS011;39737;43.334;21.936;2023-07-28T16:48:45;2.30;;;1.42;;
53835;SDS011;39737;43.334;21.936;2023-07-28T16:51:33;6.40;;;1.85;;
53835;SDS011;39737;43.334;21.936;2023-07-28T16:54:20;1.75;;;1.38;;
53835;SDS011;39737;43.334;21.936;2023-07-28T16:57:09;2.17;;;1.70;;